createdAt,value
2022-12-03T00:00:13.490Z,4.59
2022-12-03T00:03:01.932Z,4.56
2022-12-03T00:05:30.228Z,4.59
2022-12-03T00:07:59.453Z,4.60
2022-12-03T00:10:27.668Z,4.61
2022-12-03T00:12:55.592Z,4.62
2022-12-03T00:15:23.839Z,4.62
2022-12-03T00:17:51.759Z,4.63
2022-12-03T00:20:21.751Z,4.62
2022-12-03T00:22:49.794Z,4.62
2022-12-03T00:25:19.473Z,4.60
2022-12-03T00:27:47.495Z,4.60
2022-12-03T00:30:16.091Z,4.59
2022-12-03T00:32:44.030Z,4.58
2022-12-03T00:35:12.286Z,4.59
2022-12-03T00:37:40.168Z,4.61
2022-12-03T00:40:09.570Z,4.63
2022-12-03T00:42:39.056Z,4.64
2022-12-03T00:45:08.169Z,4.64
2022-12-03T00:47:36.036Z,4.66
2022-12-03T00:50:04.467Z,4.65
2022-12-03T00:52:32.390Z,4.64
2022-12-03T00:55:00.546Z,4.64
2022-12-03T00:57:28.400Z,4.62
2022-12-03T00:59:57.902Z,4.64
2022-12-03T01:02:25.834Z,4.68
2022-12-03T01:04:54.380Z,4.70
2022-12-03T01:07:22.565Z,4.73
2022-12-03T01:09:50.677Z,4.72
2022-12-03T01:12:19.405Z,4.72
2022-12-03T01:14:47.696Z,4.71
2022-12-03T01:17:16.961Z,4.69
2022-12-03T01:19:48.419Z,4.70
2022-12-03T01:22:16.640Z,4.69
2022-12-03T01:24:44.854Z,4.68
2022-12-03T01:27:12.747Z,4.68
2022-12-03T01:29:40.873Z,4.70
2022-12-03T01:32:17.072Z,4.69
2022-12-03T01:34:47.309Z,4.72
2022-12-03T01:37:15.684Z,4.73
2022-12-03T01:39:44.372Z,4.73
2022-12-03T01:42:14.493Z,4.74
2022-12-03T01:44:43.021Z,4.73
2022-12-03T01:47:14.794Z,4.73
2022-12-03T01:49:46.664Z,4.71
2022-12-03T01:52:16.059Z,4.72
2022-12-03T01:54:47.550Z,4.73
2022-12-03T01:57:21.463Z,4.72
2022-12-03T01:59:50.346Z,4.74
2022-12-03T02:02:22.856Z,4.76
2022-12-03T02:04:54.180Z,4.77
2022-12-03T02:07:25.431Z,4.80
2022-12-03T02:09:54.465Z,4.79
2022-12-03T02:12:24.693Z,4.77
2022-12-03T02:14:53.683Z,4.76
2022-12-03T02:17:21.795Z,4.74
2022-12-03T02:19:50.126Z,4.72
2022-12-03T02:22:28.550Z,4.74
2022-12-03T02:25:09.598Z,4.72
2022-12-03T02:27:37.673Z,4.78
2022-12-03T02:30:08.423Z,4.81
2022-12-03T02:32:36.457Z,4.83
2022-12-03T02:35:04.750Z,4.85
2022-12-03T02:37:34.820Z,4.88
2022-12-03T02:40:06.286Z,4.91
2022-12-03T02:42:38.378Z,4.94
2022-12-03T02:45:10.196Z,4.96
2022-12-03T02:47:42.546Z,4.98
2022-12-03T02:50:13.152Z,4.98
2022-12-03T02:52:42.188Z,4.99
2022-12-03T02:55:10.992Z,4.95
2022-12-03T02:57:40.551Z,4.94
2022-12-03T03:00:10.910Z,4.92
2022-12-03T03:02:39.592Z,4.89
2022-12-03T03:05:09.747Z,4.90
2022-12-03T03:07:38.104Z,4.93
2022-12-03T03:10:08.378Z,4.93
2022-12-03T03:12:39.399Z,4.91
2022-12-03T03:15:11.459Z,4.90
2022-12-03T03:17:39.695Z,4.90
2022-12-03T03:20:10.100Z,4.89
2022-12-03T03:22:39.970Z,4.83
2022-12-03T03:25:10.791Z,4.88
2022-12-03T03:27:39.281Z,4.89
2022-12-03T03:30:10.743Z,4.89
2022-12-03T03:32:39.689Z,4.92
2022-12-03T03:35:08.982Z,4.93
2022-12-03T03:37:36.915Z,4.92
2022-12-03T03:40:05.906Z,4.92
2022-12-03T03:42:34.034Z,4.94
2022-12-03T03:45:02.361Z,4.93
2022-12-03T03:47:31.693Z,4.93
2022-12-03T03:49:59.877Z,4.92
2022-12-03T03:52:27.784Z,4.92
2022-12-03T03:54:56.091Z,4.90
2022-12-03T03:57:24.080Z,4.88
2022-12-03T03:59:52.828Z,4.87
2022-12-03T04:02:22.128Z,4.87
2022-12-03T04:04:52.491Z,4.88
2022-12-03T04:07:20.657Z,4.85
2022-12-03T04:09:48.787Z,4.84
2022-12-03T04:12:34.409Z,4.83
2022-12-03T04:15:02.761Z,4.79
2022-12-03T04:17:30.736Z,4.77
2022-12-03T04:20:00.265Z,4.75
2022-12-03T04:22:42.317Z,4.74
2022-12-03T04:25:28.945Z,4.75
2022-12-03T04:28:14.637Z,4.75
2022-12-03T04:30:42.889Z,4.74
2022-12-03T04:33:28.348Z,4.72
2022-12-03T04:35:57.931Z,4.72
2022-12-03T04:38:25.919Z,4.73
2022-12-03T04:41:04.085Z,4.73
2022-12-03T04:43:33.663Z,4.71
2022-12-03T04:46:02.391Z,4.68
2022-12-03T04:48:30.972Z,4.69
2022-12-03T04:51:00.603Z,4.70
2022-12-03T04:53:28.516Z,4.70
2022-12-03T04:55:56.676Z,4.67
2022-12-03T04:58:24.620Z,4.64
2022-12-03T05:00:52.984Z,4.65
2022-12-03T05:03:21.004Z,4.64
2022-12-03T05:05:49.114Z,4.63
2022-12-03T05:08:18.399Z,4.60
2022-12-03T05:10:46.613Z,4.59
2022-12-03T05:13:14.505Z,4.59
2022-12-03T05:15:42.637Z,4.58
2022-12-03T05:18:10.515Z,4.58
2022-12-03T05:20:51.342Z,4.59
2022-12-03T05:23:22.627Z,4.59
2022-12-03T05:25:51.389Z,4.58
2022-12-03T05:28:22.067Z,4.55
2022-12-03T05:30:50.230Z,4.54
2022-12-03T05:33:18.424Z,4.51
2022-12-03T05:35:46.603Z,4.51
2022-12-03T05:38:14.757Z,4.51
2022-12-03T05:40:44.307Z,4.48
2022-12-03T05:43:11.246Z,4.47
2022-12-03T05:45:40.983Z,4.47
2022-12-03T05:48:10.886Z,4.46
2022-12-03T05:50:40.825Z,4.44
2022-12-03T05:53:18.370Z,4.40
2022-12-03T05:55:47.925Z,4.38
2022-12-03T05:58:15.817Z,4.34
2022-12-03T06:00:43.953Z,4.34
2022-12-03T06:03:12.069Z,4.29
2022-12-03T06:05:40.234Z,4.25
2022-12-03T06:08:08.217Z,4.24
2022-12-03T06:10:36.387Z,4.15
2022-12-03T06:13:05.667Z,4.08
2022-12-03T06:15:48.916Z,4.01
2022-12-03T06:18:16.877Z,3.93
2022-12-03T06:20:44.960Z,3.83
2022-12-03T06:23:12.918Z,3.74
2022-12-03T06:25:41.122Z,3.66
2022-12-03T06:28:10.390Z,3.63
2022-12-03T06:30:38.593Z,3.61
2022-12-03T06:33:06.472Z,3.59
2022-12-03T06:35:34.634Z,3.55
2022-12-03T06:38:02.497Z,3.56
2022-12-03T06:40:30.650Z,3.53
2022-12-03T06:42:58.545Z,3.51
2022-12-03T06:45:28.051Z,3.47
2022-12-03T06:47:56.169Z,3.43
2022-12-03T06:50:24.380Z,3.37
2022-12-03T06:52:52.277Z,3.31
2022-12-03T06:55:20.417Z,3.27
2022-12-03T06:57:48.333Z,3.24
2022-12-03T07:00:17.145Z,3.22
2022-12-03T07:02:46.502Z,3.19
2022-12-03T07:05:15.094Z,3.18
2022-12-03T07:07:42.996Z,3.14
2022-12-03T07:10:11.939Z,3.12
2022-12-03T07:12:39.880Z,3.11
2022-12-03T07:15:08.928Z,3.13
2022-12-03T07:17:36.843Z,3.15
2022-12-03T07:20:07.944Z,3.15
2022-12-03T07:22:35.910Z,3.14
2022-12-03T07:25:04.337Z,3.13
2022-12-03T07:27:32.344Z,3.11
2022-12-03T07:30:00.471Z,3.08
2022-12-03T07:32:28.391Z,3.06
2022-12-03T07:34:56.871Z,3.06
2022-12-03T07:37:26.189Z,3.06
2022-12-03T07:39:54.523Z,3.06
2022-12-03T07:42:22.442Z,3.08
2022-12-03T07:44:50.804Z,3.14
2022-12-03T07:47:19.081Z,3.18
2022-12-03T07:49:47.271Z,3.26
2022-12-03T07:52:15.198Z,3.35
2022-12-03T07:54:44.765Z,3.45
2022-12-03T07:57:12.641Z,3.56
2022-12-03T07:59:40.769Z,3.64
2022-12-03T08:02:10.709Z,3.71
2022-12-03T08:04:38.961Z,3.79
2022-12-03T08:07:06.893Z,3.85
2022-12-03T08:09:35.010Z,3.90
2022-12-03T08:12:07.657Z,3.95
2022-12-03T08:14:37.676Z,3.95
2022-12-03T08:17:10.920Z,3.90
2022-12-03T08:19:39.139Z,3.85
2022-12-03T08:22:12.340Z,3.84
2022-12-03T08:24:40.475Z,3.86
2022-12-03T08:27:17.485Z,3.91
2022-12-03T08:29:45.998Z,3.92
2022-12-03T08:32:14.574Z,3.96
2022-12-03T08:34:43.965Z,3.99
2022-12-03T08:37:16.716Z,3.99
2022-12-03T08:39:48.201Z,3.93
2022-12-03T08:42:38.351Z,3.88
2022-12-03T08:45:31.938Z,3.83
2022-12-03T08:48:00.966Z,3.79
2022-12-03T08:50:31.025Z,3.82
2022-12-03T08:53:03.499Z,3.87
2022-12-03T08:55:35.901Z,3.88
2022-12-03T08:58:16.053Z,3.90
2022-12-03T09:00:44.883Z,3.90
2022-12-03T09:03:17.481Z,3.90
2022-12-03T09:05:45.697Z,3.88
2022-12-03T09:08:13.703Z,3.91
2022-12-03T09:10:41.924Z,3.96
2022-12-03T09:13:11.151Z,4.04
2022-12-03T09:15:39.315Z,4.14
2022-12-03T09:18:07.285Z,4.28
2022-12-03T09:20:35.448Z,4.38
2022-12-03T09:23:03.408Z,4.40
2022-12-03T09:25:31.599Z,4.43
2022-12-03T09:27:59.495Z,4.47
2022-12-03T09:30:29.106Z,4.49
2022-12-03T09:32:57.104Z,4.54
2022-12-03T09:35:26.019Z,4.62
2022-12-03T09:37:54.420Z,4.71
2022-12-03T09:40:23.184Z,4.77
2022-12-03T09:42:51.581Z,4.84
2022-12-03T09:45:20.823Z,4.90
2022-12-03T09:47:50.517Z,4.99
2022-12-03T09:50:21.444Z,5.06
2022-12-03T09:52:50.944Z,5.17
2022-12-03T09:55:22.649Z,5.30
2022-12-03T09:57:52.397Z,5.42
2022-12-03T10:00:23.811Z,5.51
2022-12-03T10:02:54.971Z,5.60
2022-12-03T10:05:23.604Z,5.67
2022-12-03T10:07:52.989Z,5.72
2022-12-03T10:10:23.870Z,5.77
2022-12-03T10:12:52.249Z,5.83
2022-12-03T10:15:23.480Z,5.87
2022-12-03T10:17:54.482Z,5.95
2022-12-03T10:20:23.897Z,6.06
2022-12-03T10:22:52.330Z,6.15
2022-12-03T10:25:22.693Z,6.18
2022-12-03T10:27:57.838Z,6.22
2022-12-03T10:30:28.420Z,6.28
2022-12-03T10:33:02.472Z,6.33
2022-12-03T10:35:38.163Z,6.35
2022-12-03T10:38:07.374Z,6.35
2022-12-03T10:40:36.635Z,6.36
2022-12-03T10:43:15.647Z,6.39
2022-12-03T10:45:44.387Z,6.38
2022-12-03T10:48:16.427Z,6.36
2022-12-03T10:50:52.357Z,6.32
2022-12-03T10:53:21.523Z,6.38
2022-12-03T10:55:52.054Z,6.39
2022-12-03T10:58:24.571Z,6.40
2022-12-03T11:00:55.081Z,6.40
2022-12-03T11:03:25.991Z,6.38
2022-12-03T11:05:55.274Z,6.37
2022-12-03T11:08:25.183Z,6.39
2022-12-03T11:10:57.929Z,6.35
2022-12-03T11:13:31.109Z,6.35
2022-12-03T11:15:59.547Z,6.32
2022-12-03T11:19:02.502Z,6.30
2022-12-03T11:21:31.278Z,6.31
2022-12-03T11:24:29.149Z,6.33
2022-12-03T11:27:20.544Z,6.34
2022-12-03T11:30:10.353Z,6.35
2022-12-03T11:33:21.541Z,6.38
2022-12-03T11:36:12.033Z,6.34
2022-12-03T11:38:53.680Z,6.30
2022-12-03T11:41:27.866Z,6.31
2022-12-03T11:44:28.121Z,6.33
2022-12-03T11:46:57.414Z,6.32
2022-12-03T11:49:33.290Z,6.32
2022-12-03T11:52:13.352Z,6.29
2022-12-03T11:54:41.608Z,6.30
2022-12-03T11:57:26.777Z,6.31
2022-12-03T12:00:08.692Z,6.34
2022-12-03T12:02:45.548Z,6.34
2022-12-03T12:05:18.817Z,6.37
2022-12-03T12:07:48.377Z,6.40
2022-12-03T12:10:47.449Z,6.43
2022-12-03T12:13:57.095Z,6.44
2022-12-03T12:16:50.419Z,6.43
2022-12-03T12:19:39.852Z,6.44
2022-12-03T12:22:16.781Z,6.46
2022-12-03T12:24:52.302Z,6.46
2022-12-03T12:27:22.319Z,6.47
2022-12-03T12:29:55.207Z,6.48
2022-12-03T12:32:29.668Z,6.46
2022-12-03T12:35:02.275Z,6.46
2022-12-03T12:37:35.915Z,6.48
2022-12-03T12:40:13.819Z,6.50
2022-12-03T12:42:45.253Z,6.47
2022-12-03T12:45:16.159Z,6.47
2022-12-03T12:47:49.196Z,6.49
2022-12-03T12:50:19.567Z,6.49
2022-12-03T12:52:51.614Z,6.50
2022-12-03T12:55:21.699Z,6.42
2022-12-03T12:57:49.869Z,6.42
2022-12-03T13:00:20.156Z,6.40
2022-12-03T13:02:53.229Z,6.38
2022-12-03T13:05:21.366Z,6.35
2022-12-03T13:07:49.678Z,6.32
2022-12-03T13:10:36.538Z,6.26
2022-12-03T13:13:17.038Z,6.22
2022-12-03T13:15:50.432Z,6.20
2022-12-03T13:18:25.790Z,6.20
2022-12-03T13:20:54.429Z,6.19
2022-12-03T13:23:31.320Z,6.18
2022-12-03T13:26:17.348Z,6.17
2022-12-03T13:28:51.084Z,6.15
2022-12-03T13:31:25.433Z,6.13
2022-12-03T13:33:54.991Z,6.14
2022-12-03T13:36:27.661Z,6.14
2022-12-03T13:38:56.383Z,6.13
2022-12-03T13:41:42.954Z,6.13
2022-12-03T13:44:15.249Z,6.11
2022-12-03T13:46:43.531Z,6.11
2022-12-03T13:49:21.209Z,6.11
2022-12-03T13:51:49.778Z,6.09
2022-12-03T13:54:21.809Z,6.09
2022-12-03T13:56:51.437Z,6.15
2022-12-03T13:59:25.757Z,6.16
2022-12-03T14:01:54.286Z,6.17
2022-12-03T14:04:22.507Z,6.18
2022-12-03T14:06:50.468Z,6.18
2022-12-03T14:09:18.608Z,6.18
2022-12-03T14:12:04.204Z,6.18
2022-12-03T14:14:33.961Z,6.16
2022-12-03T14:17:01.926Z,6.15
2022-12-03T14:19:30.097Z,6.13
2022-12-03T14:21:58.084Z,6.11
2022-12-03T14:24:27.026Z,6.09
2022-12-03T14:26:54.985Z,6.09
2022-12-03T14:29:23.144Z,6.07
2022-12-03T14:31:52.612Z,6.06
2022-12-03T14:34:21.727Z,6.05
2022-12-03T14:36:49.893Z,6.02
2022-12-03T14:39:18.025Z,6.01
2022-12-03T14:42:03.816Z,5.98
2022-12-03T14:44:31.937Z,5.98
2022-12-03T14:47:01.317Z,5.98
2022-12-03T14:49:29.488Z,5.98
2022-12-03T14:51:57.502Z,5.95
2022-12-03T14:54:25.995Z,5.93
2022-12-03T14:56:53.998Z,5.93
2022-12-03T14:59:27.402Z,5.90
2022-12-03T15:01:56.175Z,5.90
2022-12-03T15:04:25.760Z,5.89
2022-12-03T15:06:53.795Z,5.87
2022-12-03T15:09:22.120Z,5.84
2022-12-03T15:11:50.127Z,5.86
2022-12-03T15:14:18.429Z,5.84
2022-12-03T15:16:46.409Z,5.83
2022-12-03T15:19:15.622Z,5.82
2022-12-03T15:21:45.267Z,5.81
2022-12-03T15:24:13.389Z,5.81
2022-12-03T15:26:41.319Z,5.82
2022-12-03T15:29:09.661Z,5.84
2022-12-03T15:31:37.585Z,5.84
2022-12-03T15:34:05.793Z,5.84
2022-12-03T15:36:33.746Z,5.85
2022-12-03T15:39:03.217Z,5.85
2022-12-03T15:41:31.615Z,5.84
2022-12-03T15:44:01.416Z,5.86
2022-12-03T15:46:31.183Z,5.86
2022-12-03T15:49:00.167Z,5.86
2022-12-03T15:51:28.287Z,5.88
2022-12-03T15:53:56.449Z,5.89
2022-12-03T15:56:25.976Z,5.88
2022-12-03T15:58:54.487Z,5.86
2022-12-03T16:01:22.504Z,5.85
2022-12-03T16:03:50.704Z,5.82
2022-12-03T16:06:19.601Z,5.84
2022-12-03T16:08:48.215Z,5.82
2022-12-03T16:11:16.381Z,5.81
2022-12-03T16:13:45.871Z,5.80
2022-12-03T16:16:13.962Z,5.82
2022-12-03T16:18:44.027Z,5.82
2022-12-03T16:21:11.949Z,5.83
2022-12-03T16:23:40.155Z,5.83
2022-12-03T16:26:08.081Z,5.84
2022-12-03T16:28:36.265Z,5.81
2022-12-03T16:31:05.939Z,5.79
2022-12-03T16:33:34.208Z,5.78
2022-12-03T16:36:03.496Z,5.81
2022-12-03T16:38:33.496Z,5.80
2022-12-03T16:41:02.129Z,5.81
2022-12-03T16:43:30.397Z,5.83
2022-12-03T16:46:20.482Z,5.83
2022-12-03T16:48:50.874Z,5.85
2022-12-03T16:51:19.883Z,5.85
2022-12-03T16:53:48.521Z,5.82
2022-12-03T16:56:16.557Z,5.83
2022-12-03T16:58:45.112Z,5.83
2022-12-03T17:01:13.619Z,5.84
2022-12-03T17:03:42.175Z,5.84
2022-12-03T17:06:11.545Z,5.85
2022-12-03T17:08:42.023Z,5.85
2022-12-03T17:11:12.410Z,5.84
2022-12-03T17:13:40.594Z,5.85
2022-12-03T17:16:08.655Z,5.87
2022-12-03T17:18:36.865Z,5.88
2022-12-03T17:21:05.175Z,5.90
2022-12-03T17:23:34.674Z,5.89
2022-12-03T17:26:02.632Z,5.86
2022-12-03T17:28:31.017Z,5.78
2022-12-03T17:30:59.317Z,5.81
2022-12-03T17:33:27.639Z,5.81
2022-12-03T17:35:55.849Z,5.82
2022-12-03T17:38:24.005Z,5.83
2022-12-03T17:40:53.426Z,5.81
2022-12-03T17:43:21.564Z,5.80
2022-12-03T17:45:49.527Z,5.75
2022-12-03T17:48:18.035Z,5.70
2022-12-03T17:50:46.092Z,5.67
2022-12-03T17:53:14.220Z,5.65
2022-12-03T17:55:44.995Z,5.64
2022-12-03T17:58:14.966Z,5.60
2022-12-03T18:00:43.137Z,5.58
2022-12-03T18:03:11.282Z,5.55
2022-12-03T18:05:39.201Z,5.48
2022-12-03T18:08:07.677Z,5.44
2022-12-03T18:10:35.755Z,5.38
2022-12-03T18:13:04.054Z,5.39
2022-12-03T18:15:33.497Z,5.38
2022-12-03T18:18:02.099Z,5.38
2022-12-03T18:20:30.030Z,5.38
2022-12-03T18:22:58.984Z,5.40
2022-12-03T18:25:28.533Z,5.39
2022-12-03T18:27:56.913Z,5.41
2022-12-03T18:30:25.367Z,5.43
2022-12-03T18:32:54.968Z,5.43
2022-12-03T18:35:22.949Z,5.42
2022-12-03T18:37:51.876Z,5.44
2022-12-03T18:40:22.443Z,5.48
2022-12-03T18:42:50.650Z,5.49
2022-12-03T18:45:18.698Z,5.50
2022-12-03T18:47:47.050Z,5.51
2022-12-03T18:50:16.418Z,5.52
2022-12-03T18:52:44.621Z,5.52
2022-12-03T18:55:16.097Z,5.53
2022-12-03T18:57:44.451Z,5.53
2022-12-03T19:00:14.143Z,5.52
2022-12-03T19:05:32.285Z,5.47
2022-12-03T19:08:00.651Z,5.39
2022-12-03T19:10:28.730Z,5.38
2022-12-03T19:12:56.999Z,5.35
2022-12-03T19:15:24.958Z,5.31
2022-12-03T19:17:53.169Z,5.30
2022-12-03T19:20:21.095Z,5.28
2022-12-03T19:22:50.566Z,5.28
2022-12-03T19:25:18.645Z,5.20
2022-12-03T19:27:47.325Z,5.15
2022-12-03T19:30:15.546Z,5.11
2022-12-03T19:32:45.124Z,5.07
2022-12-03T19:35:13.061Z,5.05
2022-12-03T19:37:41.250Z,5.04
2022-12-03T19:40:11.445Z,5.03
2022-12-03T19:42:40.000Z,5.02
2022-12-03T19:45:09.010Z,5.01
2022-12-03T19:47:37.912Z,5.04
2022-12-03T19:50:07.091Z,5.05
2022-12-03T19:52:37.137Z,5.04
2022-12-03T19:55:06.123Z,5.05
2022-12-03T19:57:35.727Z,5.07
2022-12-03T20:00:05.302Z,5.07
2022-12-03T20:02:40.776Z,5.09
2022-12-03T20:05:09.182Z,5.13
2022-12-03T20:07:37.813Z,5.15
2022-12-03T20:10:07.335Z,5.16
2022-12-03T20:12:36.912Z,5.18
2022-12-03T20:15:05.948Z,5.19
2022-12-03T20:17:34.213Z,5.19
2022-12-03T20:20:02.155Z,5.19
2022-12-03T20:22:31.638Z,5.17
2022-12-03T20:24:59.505Z,5.14
2022-12-03T20:27:27.835Z,5.14
2022-12-03T20:29:57.451Z,5.12
2022-12-03T20:32:25.998Z,5.12
2022-12-03T20:34:54.048Z,5.08
2022-12-03T20:37:22.304Z,5.09
2022-12-03T20:39:50.733Z,5.11
2022-12-03T20:42:19.305Z,5.08
2022-12-03T20:44:47.485Z,5.06
2022-12-03T20:47:17.524Z,5.05
2022-12-03T20:49:45.589Z,5.06
2022-12-03T20:52:13.825Z,5.10
2022-12-03T20:54:42.021Z,5.05
2022-12-03T20:57:10.378Z,5.03
2022-12-03T20:59:38.537Z,5.04
2022-12-03T21:02:06.931Z,5.05
2022-12-03T21:04:36.318Z,5.02
2022-12-03T21:07:04.815Z,5.00
2022-12-03T21:09:32.993Z,4.97
2022-12-03T21:12:01.714Z,4.93
2022-12-03T21:14:29.706Z,4.93
2022-12-03T21:17:08.242Z,4.90
2022-12-03T21:19:39.219Z,4.88
2022-12-03T21:22:07.958Z,4.88
2022-12-03T21:24:36.195Z,4.87
2022-12-03T21:27:04.492Z,4.88
2022-12-03T21:29:32.433Z,4.90
2022-12-03T21:32:00.619Z,4.91
2022-12-03T21:34:35.557Z,4.90
2022-12-03T21:37:06.119Z,4.88
2022-12-03T21:39:37.337Z,4.84
2022-12-03T21:42:19.370Z,4.81
2022-12-03T21:44:54.514Z,4.83
2022-12-03T21:47:22.753Z,4.83
2022-12-03T21:49:50.780Z,4.79
2022-12-03T21:52:20.290Z,4.75
2022-12-03T21:54:48.194Z,4.74
2022-12-03T21:57:16.441Z,4.74
2022-12-03T21:59:44.488Z,4.77
2022-12-03T22:02:13.036Z,4.79
2022-12-03T22:04:41.415Z,4.80
2022-12-03T22:07:09.622Z,4.81
2022-12-03T22:09:38.958Z,4.84
2022-12-03T22:12:07.526Z,4.83
2022-12-03T22:14:35.641Z,4.81
2022-12-03T22:17:04.129Z,4.80
2022-12-03T22:19:32.306Z,4.80
2022-12-03T22:22:01.008Z,4.78
2022-12-03T22:24:29.006Z,4.75
2022-12-03T22:26:58.945Z,4.72
2022-12-03T22:29:26.928Z,4.68
2022-12-03T22:31:55.103Z,4.66
2022-12-03T22:34:23.099Z,4.65
2022-12-03T22:36:51.316Z,4.62
2022-12-03T22:39:19.530Z,4.63
2022-12-03T22:41:47.703Z,4.64
2022-12-03T22:44:17.050Z,4.64
2022-12-03T22:46:45.278Z,4.62
2022-12-03T22:49:13.793Z,4.62
2022-12-03T22:51:45.210Z,4.63
2022-12-03T22:54:13.456Z,4.66
2022-12-03T22:56:41.739Z,4.70
2022-12-03T22:59:09.644Z,4.68
2022-12-03T23:01:40.767Z,4.66
2022-12-03T23:04:09.582Z,4.67
2022-12-03T23:06:38.846Z,4.64
2022-12-03T23:09:08.096Z,4.67
2022-12-03T23:11:37.031Z,4.70
2022-12-03T23:14:05.019Z,4.72
2022-12-03T23:16:34.173Z,4.73
2022-12-03T23:19:04.397Z,4.78
2022-12-03T23:21:34.959Z,4.88
2022-12-03T23:24:04.638Z,4.93
2022-12-03T23:26:35.292Z,4.92
2022-12-03T23:29:03.327Z,4.86
2022-12-03T23:31:32.740Z,4.79
2022-12-03T23:34:01.294Z,4.73
2022-12-03T23:36:31.836Z,4.67
2022-12-03T23:38:59.773Z,4.64
2022-12-03T23:41:28.428Z,4.60
2022-12-03T23:43:57.381Z,4.57
2022-12-03T23:46:27.274Z,4.53
2022-12-03T23:48:58.334Z,4.54
2022-12-03T23:51:27.153Z,4.51
2022-12-03T23:53:57.032Z,4.50
2022-12-03T23:56:27.566Z,4.49
2022-12-03T23:58:55.956Z,4.48
